Belgrade Nikola Tesla, Serbia

3:33 AM CEST on August 23, 2014 (GMT +0200)
Zemun | Change Station
CLOSE
Current Station
Personal Weather Station
Location: Belgrade,
Elevation: 302 ft
Nearby Weather Stations

Elev 302 ft 44.86 °N, 20.39 °E | Updated 3 minutes ago

Clear
Clear
67.1 °F
Feels Like 67.1 °F
N
3.4
Wind Variable Wind from South
Gusts 4.6 mph

Today
High -- | Low -- °F
--% Chance of Precip.
Yesterday
High -- | Low -- °F
Precip. -- in
5:50 AM 7:32 PM
Waning Crescent, 6% visible
Pressure 29.98 in
Visibility -9999.0 miles
Clouds
Dew Point 62 °F
Humidity 84%
Rainfall 0.00 in
Snow Depth Not available.
UV Not available.
Pollen Not available.
Air Quality Not available.
Flu Activity Not available.
METAR LYBE 230100Z 14002KT CAVOK 19/16 Q1015 NOSIG

More Conditions Fewer Conditions

Pressure 29.98 in
Visibility -9999.0 miles
Clouds
Dew Point 62 °F
Humidity 84%
Rainfall 0.00 in
Snow Depth Not available.
UV Not available.
Pollen Not available.
Air Quality Not available.
Flu Activity Not available.
METAR LYBE 230100Z 14002KT CAVOK 19/16 Q1015 NOSIG

More Conditions Fewer Conditions

10-Day Weather Forecast

Almanac

Astronomy

Aug. 23, 2014 Rise Set
Actual Time 5:50 AM CEST 7:32 PM CEST
Civil Twilight 5:19 AM CEST 8:03 PM CEST
Nautical Twilight 4:41 AM CEST 8:40 PM CEST
Astronomical Twilight 4:00 AM CEST 9:21 PM CEST
Moon 3:47 AM CEST 6:07 PM CEST
Length of Visible Light 14h 43m
Length of Day
13h 42m
Tomorrow will be 2m 54s shorter.
Waning Crescent, 6% of the Moon is Illuminated
Aug 22
Waning Crescent
Aug 25
New
Sep 2
First Quarter
Sep 8
Full
Sep 15
Last Quarter

Community

WunderPhotos

Upload Photos

1,746,337 photos uploaded!

WunderBlogs® & News

Nearby

Snow Depth

Not available.

Earthquake Activity

City Distance Mag. Time & Date
No recent earthquake activity has been reported nearby.
Minimum magnitude displayed is 2.5.

Coastal Water Temperatures

Place Temperature
No Stations Reporting

Nearby Weather Stations